createdAt,value
2022-12-01T00:01:36.083Z,0.99
2022-12-01T00:04:04.561Z,1.02
2022-12-01T00:06:32.843Z,1.17
2022-12-01T00:09:20.246Z,1.14
2022-12-01T00:11:49.392Z,1.07
2022-12-01T00:14:17.874Z,1.02
2022-12-01T00:16:46.060Z,1.04
2022-12-01T00:19:13.950Z,0.99
2022-12-01T00:21:42.028Z,1.03
2022-12-01T00:24:11.008Z,1.02
2022-12-01T00:26:39.525Z,0.96
2022-12-01T00:29:09.003Z,0.98
2022-12-01T00:31:37.736Z,0.98
2022-12-01T00:34:11.134Z,0.94
2022-12-01T00:36:39.972Z,0.95
2022-12-01T00:39:08.644Z,0.97
2022-12-01T00:41:36.636Z,0.93
2022-12-01T00:44:04.983Z,0.94
2022-12-01T00:46:33.693Z,0.95
2022-12-01T00:49:01.912Z,0.94
2022-12-01T00:51:30.622Z,0.87
2022-12-01T00:53:58.244Z,0.91
2022-12-01T00:56:26.360Z,0.91
2022-12-01T00:58:54.249Z,0.86
2022-12-01T01:01:22.976Z,0.87
2022-12-01T01:03:50.995Z,0.90
2022-12-01T01:06:19.243Z,0.95
2022-12-01T01:08:46.938Z,0.83
2022-12-01T01:11:15.055Z,0.77
2022-12-01T01:13:43.119Z,0.86
2022-12-01T01:16:15.925Z,0.85
2022-12-01T01:18:43.712Z,0.87
2022-12-01T01:21:18.134Z,0.77
2022-12-01T01:23:46.728Z,0.84
2022-12-01T01:26:30.283Z,0.87
2022-12-01T01:29:02.923Z,0.89
2022-12-01T01:31:31.830Z,0.85
2022-12-01T01:34:00.234Z,0.91
2022-12-01T01:36:28.813Z,0.93
2022-12-01T01:38:56.718Z,0.92
2022-12-01T01:41:25.453Z,0.91
2022-12-01T01:44:03.089Z,0.90
2022-12-01T01:46:33.420Z,0.90
2022-12-01T01:49:08.549Z,0.88
2022-12-01T01:51:45.708Z,0.84
2022-12-01T01:54:31.948Z,0.83
2022-12-01T01:57:01.533Z,0.83
2022-12-01T01:59:44.228Z,0.75
2022-12-01T02:02:14.524Z,0.82
2022-12-01T02:04:46.479Z,0.83
2022-12-01T02:07:17.772Z,0.80
2022-12-01T02:09:46.777Z,0.85
2022-12-01T02:12:45.958Z,0.85
2022-12-01T02:15:48.883Z,0.84
2022-12-01T02:18:36.262Z,0.81
2022-12-01T02:21:33.439Z,0.78
2022-12-01T02:24:26.696Z,0.75
2022-12-01T02:27:00.173Z,0.72
2022-12-01T02:30:02.675Z,0.70
2022-12-01T02:32:37.990Z,0.67
2022-12-01T02:36:01.690Z,0.65
2022-12-01T02:38:39.173Z,0.64
2022-12-01T02:41:23.565Z,0.62
2022-12-01T02:44:17.730Z,0.65
2022-12-01T02:46:59.427Z,0.62
2022-12-01T02:49:31.321Z,0.62
2022-12-01T02:51:59.800Z,0.62
2022-12-01T02:54:30.722Z,0.64
2022-12-01T02:56:58.948Z,0.63
2022-12-01T02:59:27.471Z,0.64
2022-12-01T03:02:24.708Z,0.57
2022-12-01T03:05:09.970Z,0.59
2022-12-01T03:07:44.113Z,0.62
2022-12-01T03:10:37.348Z,0.61
2022-12-01T03:13:27.517Z,0.62
2022-12-01T03:16:22.096Z,0.64
2022-12-01T03:19:08.975Z,0.65
2022-12-01T03:21:41.727Z,0.61
2022-12-01T03:24:12.202Z,0.60
2022-12-01T03:26:42.085Z,0.61
2022-12-01T03:29:22.530Z,0.68
2022-12-01T03:32:04.679Z,0.51
2022-12-01T03:34:53.161Z,0.63
2022-12-01T03:37:33.722Z,0.60
2022-12-01T03:40:03.508Z,0.59
2022-12-01T03:42:38.719Z,0.69
2022-12-01T03:45:10.634Z,0.71
2022-12-01T03:47:40.912Z,0.71
2022-12-01T03:50:13.602Z,0.67
2022-12-01T03:53:19.759Z,0.60
2022-12-01T03:55:58.868Z,0.63
2022-12-01T03:58:36.498Z,0.64
2022-12-01T04:01:05.577Z,0.70
2022-12-01T04:03:33.914Z,0.64
2022-12-01T04:06:03.157Z,0.64
2022-12-01T04:08:31.044Z,0.61
2022-12-01T04:10:59.648Z,0.58
2022-12-01T04:13:27.530Z,0.64
2022-12-01T04:15:56.129Z,0.68
2022-12-01T04:18:24.288Z,0.75
2022-12-01T04:20:53.339Z,0.71
2022-12-01T04:23:39.362Z,0.68
2022-12-01T04:26:12.725Z,0.67
2022-12-01T04:28:43.652Z,0.71
2022-12-01T04:31:11.781Z,0.66
2022-12-01T04:33:40.435Z,0.70
2022-12-01T04:36:09.182Z,0.59
2022-12-01T04:38:39.857Z,0.63
2022-12-01T04:41:12.559Z,0.61
2022-12-01T04:43:41.123Z,0.59
2022-12-01T04:46:10.087Z,0.69
2022-12-01T04:48:39.259Z,0.68
2022-12-01T04:51:08.793Z,0.54
2022-12-01T04:53:37.358Z,0.57
2022-12-01T04:56:06.000Z,0.65
2022-12-01T04:58:34.713Z,0.66
2022-12-01T05:01:07.508Z,0.61
2022-12-01T05:03:39.980Z,0.70
2022-12-01T05:06:13.831Z,0.75
2022-12-01T05:08:41.833Z,0.63
2022-12-01T05:11:12.476Z,0.75
2022-12-01T05:13:42.055Z,0.71
2022-12-01T05:16:12.582Z,0.79
2022-12-01T05:18:41.434Z,0.72
2022-12-01T05:21:11.140Z,0.66
2022-12-01T05:23:39.468Z,0.66
2022-12-01T05:26:09.733Z,0.67
2022-12-01T05:28:38.999Z,0.70
2022-12-01T05:31:07.226Z,0.65
2022-12-01T05:33:35.214Z,0.63
2022-12-01T05:36:03.513Z,0.56
2022-12-01T05:38:30.903Z,0.69
2022-12-01T05:40:59.141Z,0.68
2022-12-01T05:43:29.446Z,0.72
2022-12-01T05:45:58.576Z,0.80
2022-12-01T05:48:27.050Z,0.72
2022-12-01T05:50:55.448Z,0.63
2022-12-01T05:53:23.118Z,0.69
2022-12-01T05:55:55.190Z,0.79
2022-12-01T05:58:23.118Z,0.66
2022-12-01T06:00:51.152Z,0.66
2022-12-01T06:03:19.002Z,0.80
2022-12-01T06:05:47.541Z,0.75
2022-12-01T06:08:15.759Z,0.64
2022-12-01T06:10:45.275Z,0.73
2022-12-01T06:13:13.380Z,0.65
2022-12-01T06:15:41.301Z,0.64
2022-12-01T06:18:09.744Z,0.71
2022-12-01T06:20:37.691Z,0.66
2022-12-01T06:23:05.394Z,0.58
2022-12-01T06:25:34.029Z,0.50
2022-12-01T06:28:02.609Z,0.49
2022-12-01T06:30:31.043Z,0.56
2022-12-01T06:32:58.974Z,0.56
2022-12-01T06:35:27.018Z,0.47
2022-12-01T06:37:55.109Z,0.49
2022-12-01T06:40:23.930Z,0.42
2022-12-01T06:42:52.420Z,0.49
2022-12-01T06:45:20.389Z,0.49
2022-12-01T06:47:48.754Z,0.55
2022-12-01T06:50:17.516Z,0.51
2022-12-01T06:52:45.638Z,0.46
2022-12-01T06:55:14.265Z,0.46
2022-12-01T06:57:43.647Z,0.50
2022-12-01T07:00:14.038Z,0.47
2022-12-01T07:02:42.183Z,0.55
2022-12-01T07:05:10.858Z,0.50
2022-12-01T07:07:39.690Z,0.50
2022-12-01T07:10:09.181Z,0.45
2022-12-01T07:12:37.769Z,0.49
2022-12-01T07:15:08.393Z,0.33
2022-12-01T07:17:37.245Z,0.46
2022-12-01T07:20:05.968Z,0.44
2022-12-01T07:22:33.978Z,0.54
2022-12-01T07:25:02.293Z,0.55
2022-12-01T07:27:33.551Z,0.67
2022-12-01T07:30:01.670Z,0.61
2022-12-01T07:32:29.723Z,0.62
2022-12-01T07:34:58.004Z,0.61
2022-12-01T07:37:25.773Z,0.64
2022-12-01T07:39:54.247Z,0.60
2022-12-01T07:42:21.983Z,0.54
2022-12-01T07:44:50.470Z,0.52
2022-12-01T07:47:18.359Z,0.60
2022-12-01T07:49:47.098Z,0.64
2022-12-01T07:52:15.698Z,0.54
2022-12-01T07:54:44.310Z,0.60
2022-12-01T07:57:15.032Z,0.58
2022-12-01T07:59:43.551Z,0.59
2022-12-01T08:02:11.611Z,0.55
2022-12-01T08:04:40.067Z,0.54
2022-12-01T08:07:07.844Z,0.59
2022-12-01T08:09:35.982Z,0.61
2022-12-01T08:12:04.139Z,0.66
2022-12-01T08:14:32.393Z,0.73
2022-12-01T08:17:00.101Z,0.80
2022-12-01T08:19:29.517Z,0.65
2022-12-01T08:21:57.814Z,0.72
2022-12-01T08:24:26.529Z,0.74
2022-12-01T08:26:54.470Z,0.91
2022-12-01T08:29:22.945Z,0.88
2022-12-01T08:31:50.682Z,0.85
2022-12-01T08:34:19.211Z,0.82
2022-12-01T08:36:47.051Z,0.74
2022-12-01T08:39:16.520Z,0.78
2022-12-01T08:41:44.415Z,0.79
2022-12-01T08:44:13.118Z,0.81
2022-12-01T08:46:41.061Z,0.71
2022-12-01T08:49:09.474Z,0.68
2022-12-01T08:51:37.222Z,0.74
2022-12-01T08:54:06.029Z,0.84
2022-12-01T08:56:37.496Z,0.81
2022-12-01T08:59:06.376Z,0.91
2022-12-01T09:01:34.742Z,0.84
2022-12-01T09:04:06.778Z,0.82
2022-12-01T09:06:39.592Z,0.93
2022-12-01T09:09:08.304Z,0.88
2022-12-01T09:11:36.137Z,0.87
2022-12-01T09:14:04.696Z,0.80
2022-12-01T09:16:32.732Z,0.91
2022-12-01T09:19:01.069Z,0.93
2022-12-01T09:21:31.015Z,0.98
2022-12-01T09:24:00.382Z,0.95
2022-12-01T09:26:29.011Z,0.87
2022-12-01T09:29:00.598Z,0.82
2022-12-01T09:31:29.125Z,0.83
2022-12-01T09:34:08.694Z,0.86
2022-12-01T09:36:38.110Z,0.83
2022-12-01T09:39:13.712Z,0.88
2022-12-01T09:41:55.178Z,0.82
2022-12-01T09:44:44.000Z,0.88
2022-12-01T09:47:26.321Z,0.87
2022-12-01T09:50:03.838Z,0.88
2022-12-01T09:52:41.076Z,0.93
2022-12-01T09:55:17.221Z,0.87
2022-12-01T09:57:48.328Z,0.90
2022-12-01T10:00:28.875Z,0.83
2022-12-01T10:03:15.469Z,0.87
2022-12-01T10:06:29.516Z,0.83
2022-12-01T10:09:24.900Z,0.80
2022-12-01T10:11:57.311Z,0.79
2022-12-01T10:14:25.230Z,0.78
2022-12-01T10:17:30.803Z,0.75
2022-12-01T10:20:44.890Z,0.66
2022-12-01T10:23:29.094Z,0.73
2022-12-01T10:26:14.535Z,0.68
2022-12-01T10:29:34.749Z,0.68
2022-12-01T10:32:31.053Z,0.72
2022-12-01T10:34:59.407Z,0.70
2022-12-01T10:37:29.331Z,0.72
2022-12-01T10:39:58.763Z,0.80
2022-12-01T10:42:49.652Z,0.77
2022-12-01T10:45:27.043Z,0.80
2022-12-01T10:48:18.072Z,0.78
2022-12-01T10:51:17.134Z,0.89
2022-12-01T10:53:45.098Z,0.84
2022-12-01T10:56:18.440Z,0.75
2022-12-01T10:58:48.731Z,0.76
2022-12-01T11:01:20.031Z,0.74
2022-12-01T11:03:52.248Z,0.68
2022-12-01T11:06:21.868Z,0.91
2022-12-01T11:09:21.522Z,0.91
2022-12-01T11:12:02.705Z,0.86
2022-12-01T11:14:49.778Z,0.78
2022-12-01T11:17:35.345Z,0.84
2022-12-01T11:20:32.794Z,0.63
2022-12-01T11:23:10.197Z,0.73
2022-12-01T11:25:38.648Z,0.73
2022-12-01T11:28:07.210Z,0.72
2022-12-01T11:30:34.934Z,0.70
2022-12-01T11:33:04.882Z,0.68
2022-12-01T11:35:36.252Z,0.77
2022-12-01T11:38:28.685Z,0.78
2022-12-01T11:40:55.732Z,0.72
2022-12-01T11:43:30.214Z,0.69
2022-12-01T11:46:01.532Z,0.57
2022-12-01T11:48:31.373Z,0.77
2022-12-01T11:51:20.283Z,0.69
2022-12-01T11:53:49.160Z,0.66
2022-12-01T11:56:28.964Z,0.67
2022-12-01T11:59:30.088Z,0.67
2022-12-01T12:02:10.851Z,0.64
2022-12-01T12:05:03.831Z,0.56
2022-12-01T12:08:01.113Z,0.70
2022-12-01T12:10:34.504Z,0.68
2022-12-01T12:13:19.090Z,0.68
2022-12-01T12:16:10.904Z,0.65
2022-12-01T12:18:44.791Z,0.65
2022-12-01T12:21:35.121Z,0.69
2022-12-01T12:24:23.914Z,0.68
2022-12-01T12:27:17.223Z,0.71
2022-12-01T12:30:03.555Z,0.77
2022-12-01T12:32:55.063Z,0.75
2022-12-01T12:35:46.200Z,0.70
2022-12-01T12:38:45.228Z,0.70
2022-12-01T12:41:40.668Z,0.73
2022-12-01T12:44:22.026Z,0.67
2022-12-01T12:47:01.704Z,0.60
2022-12-01T12:49:29.868Z,0.61
2022-12-01T12:52:08.787Z,0.62
2022-12-01T12:54:57.810Z,0.55
2022-12-01T12:57:37.569Z,0.62
2022-12-01T13:00:15.959Z,0.60
2022-12-01T13:03:06.386Z,0.58
2022-12-01T13:05:55.332Z,0.60
2022-12-01T13:08:32.465Z,0.64
2022-12-01T13:11:31.058Z,0.63
2022-12-01T13:14:20.670Z,0.59
2022-12-01T13:16:50.760Z,0.63
2022-12-01T13:19:28.104Z,0.58
2022-12-01T13:21:56.971Z,0.56
2022-12-01T13:24:28.420Z,0.55
2022-12-01T13:27:01.005Z,0.56
2022-12-01T13:29:40.870Z,0.43
2022-12-01T13:32:29.865Z,0.47
2022-12-01T13:34:58.578Z,0.45
2022-12-01T13:37:29.380Z,0.36
2022-12-01T13:40:08.885Z,0.27
2022-12-01T13:42:37.885Z,0.41
2022-12-01T13:45:16.592Z,0.29
2022-12-01T13:47:47.525Z,0.35
2022-12-01T13:50:36.889Z,0.37
2022-12-01T13:53:12.892Z,0.21
2022-12-01T13:56:00.735Z,0.42
2022-12-01T13:58:35.052Z,0.42
2022-12-01T14:01:22.135Z,0.43
2022-12-01T14:03:58.259Z,0.41
2022-12-01T14:06:29.265Z,0.40
2022-12-01T14:09:03.354Z,0.37
2022-12-01T14:11:32.789Z,0.39
2022-12-01T14:14:13.529Z,0.32
2022-12-01T14:16:55.699Z,0.32
2022-12-01T14:19:34.019Z,0.28
2022-12-01T14:22:02.629Z,0.30
2022-12-01T14:24:44.026Z,0.24
2022-12-01T14:27:12.767Z,0.20
2022-12-01T14:29:44.648Z,0.22
2022-12-01T14:32:15.369Z,0.19
2022-12-01T14:34:44.809Z,0.23
2022-12-01T14:37:16.485Z,0.22
2022-12-01T14:40:07.889Z,0.19
2022-12-01T14:42:58.959Z,0.13
2022-12-01T14:45:50.357Z,0.07
2022-12-01T14:48:23.119Z,0.06
2022-12-01T14:50:55.328Z,0.03
2022-12-01T14:53:39.306Z,0.03
2022-12-01T14:56:17.370Z,-0.01
2022-12-01T14:58:56.718Z,-0.10
2022-12-01T15:01:36.181Z,-0.05
2022-12-01T15:04:06.763Z,-0.09
2022-12-01T15:06:36.396Z,-0.11
2022-12-01T15:11:59.404Z,-0.23
2022-12-01T15:14:48.404Z,-0.26
2022-12-01T15:17:38.203Z,-0.32
2022-12-01T15:20:33.696Z,-0.40
2022-12-01T15:23:08.019Z,-0.29
2022-12-01T15:25:37.229Z,-0.31
2022-12-01T15:28:31.778Z,-0.31
2022-12-01T15:31:00.445Z,-0.38
2022-12-01T15:33:37.240Z,-0.36
2022-12-01T15:36:05.952Z,-0.26
2022-12-01T15:38:36.272Z,-0.29
2022-12-01T15:41:28.657Z,-0.18
2022-12-01T15:44:03.940Z,-0.24
2022-12-01T15:46:34.725Z,-0.42
2022-12-01T15:49:17.145Z,-0.48
2022-12-01T15:51:46.928Z,-0.50
2022-12-01T15:54:24.389Z,-0.58
2022-12-01T15:56:56.157Z,-0.56
2022-12-01T15:59:40.421Z,-0.53
2022-12-01T16:02:31.548Z,-0.59
2022-12-01T16:05:16.112Z,-0.61
2022-12-01T16:08:11.976Z,-0.65
2022-12-01T16:10:37.439Z,-0.73
2022-12-01T16:13:42.996Z,-0.72
2022-12-01T16:16:48.657Z,-0.68
2022-12-01T16:19:19.701Z,-0.69
2022-12-01T16:22:15.096Z,-0.74
2022-12-01T16:25:01.324Z,-0.77
2022-12-01T16:27:31.368Z,-0.79
2022-12-01T16:30:02.166Z,-0.75
2022-12-01T16:32:41.568Z,-0.73
2022-12-01T16:35:21.897Z,-0.76
2022-12-01T16:37:49.893Z,-0.82
2022-12-01T16:40:18.013Z,-0.81
2022-12-01T16:42:46.849Z,-0.82
2022-12-01T16:45:15.194Z,-0.81
2022-12-01T16:47:44.494Z,-0.84
2022-12-01T16:50:17.998Z,-0.85
2022-12-01T16:52:46.576Z,-0.90
2022-12-01T16:55:44.779Z,-0.86
2022-12-01T16:58:13.512Z,-0.81
2022-12-01T17:00:41.460Z,-0.83
2022-12-01T17:03:16.031Z,-0.81
2022-12-01T17:05:44.308Z,-0.82
2022-12-01T17:08:12.893Z,-0.80
2022-12-01T17:10:41.889Z,-0.82
2022-12-01T17:13:11.300Z,-0.86
2022-12-01T17:15:50.402Z,-0.89
2022-12-01T17:18:20.569Z,-0.92
2022-12-01T17:20:59.566Z,-1.01
2022-12-01T17:23:28.643Z,-1.04
2022-12-01T17:25:56.470Z,-1.09
2022-12-01T17:28:24.706Z,-1.14
2022-12-01T17:30:52.858Z,-1.12
2022-12-01T17:33:21.403Z,-1.17
2022-12-01T17:35:50.240Z,-1.23
2022-12-01T17:38:18.377Z,-1.26
2022-12-01T17:40:46.289Z,-1.28
2022-12-01T17:43:14.713Z,-1.31
2022-12-01T17:45:43.381Z,-1.40
2022-12-01T17:48:11.591Z,-1.42
2022-12-01T17:50:39.549Z,-1.37
2022-12-01T17:53:07.948Z,-1.43
2022-12-01T17:55:40.618Z,-1.42
2022-12-01T17:58:08.796Z,-1.47
2022-12-01T18:00:36.908Z,-1.52
2022-12-01T18:03:05.657Z,-1.57
2022-12-01T18:05:33.484Z,-1.58
2022-12-01T18:08:02.119Z,-1.64
2022-12-01T18:10:29.937Z,-1.73
2022-12-01T18:12:58.343Z,-1.68
2022-12-01T18:15:31.792Z,-1.64
2022-12-01T18:18:02.698Z,-1.67
2022-12-01T18:20:30.540Z,-1.68
2022-12-01T18:22:59.073Z,-1.60
2022-12-01T18:25:26.660Z,-1.65
2022-12-01T18:27:59.185Z,-1.63
2022-12-01T18:30:27.148Z,-1.64
2022-12-01T18:32:55.482Z,-1.70
2022-12-01T18:35:26.289Z,-1.74
2022-12-01T18:37:58.772Z,-1.81
2022-12-01T18:40:27.394Z,-1.81
2022-12-01T18:42:55.521Z,-1.81
2022-12-01T18:45:23.175Z,-1.79
2022-12-01T18:47:51.549Z,-1.80
2022-12-01T18:50:19.414Z,-1.76
2022-12-01T18:52:47.760Z,-1.76
2022-12-01T18:55:15.608Z,-1.83
2022-12-01T18:57:44.159Z,-1.80
2022-12-01T19:00:12.859Z,-1.77
2022-12-01T19:02:41.129Z,-1.87
2022-12-01T19:05:09.477Z,-1.92
2022-12-01T19:07:38.085Z,-1.80
2022-12-01T19:10:06.816Z,-1.81
2022-12-01T19:12:40.795Z,-1.81
2022-12-01T19:15:09.928Z,-1.85
2022-12-01T19:17:38.740Z,-1.91
2022-12-01T19:20:08.204Z,-1.85
2022-12-01T19:22:36.767Z,-1.78
2022-12-01T19:25:04.765Z,-1.86
2022-12-01T19:27:35.420Z,-1.90
2022-12-01T19:30:04.195Z,-1.92
2022-12-01T19:32:33.582Z,-1.87
2022-12-01T19:35:01.528Z,-1.83
2022-12-01T19:37:30.890Z,-1.80
2022-12-01T19:39:58.832Z,-1.75
2022-12-01T19:42:27.339Z,-1.71
2022-12-01T19:44:55.977Z,-1.73
2022-12-01T19:47:24.546Z,-1.73
2022-12-01T19:49:52.236Z,-1.69
2022-12-01T19:52:20.802Z,-1.69
2022-12-01T19:54:49.298Z,-1.68
2022-12-01T19:57:18.253Z,-1.73
2022-12-01T19:59:46.179Z,-1.73
2022-12-01T20:02:14.608Z,-1.74
2022-12-01T20:04:42.992Z,-1.79
2022-12-01T20:07:11.122Z,-1.83
2022-12-01T20:09:39.530Z,-1.76
2022-12-01T20:12:08.254Z,-1.97
2022-12-01T20:14:36.865Z,-1.95
2022-12-01T20:17:05.575Z,-2.01
2022-12-01T20:19:34.030Z,-1.94
2022-12-01T20:22:02.703Z,-1.98
2022-12-01T20:24:30.720Z,-1.96
2022-12-01T20:26:59.400Z,-1.96
2022-12-01T20:29:29.883Z,-1.97
2022-12-01T20:31:59.763Z,-1.92
2022-12-01T20:34:31.636Z,-1.95
2022-12-01T20:36:59.967Z,-1.95
2022-12-01T20:39:31.588Z,-2.05
2022-12-01T20:42:00.336Z,-1.96
2022-12-01T20:44:28.963Z,-1.96
2022-12-01T20:46:58.378Z,-1.88
2022-12-01T20:49:26.529Z,-1.92
2022-12-01T20:51:55.231Z,-1.85
2022-12-01T20:54:28.320Z,-1.96
2022-12-01T20:56:58.745Z,-1.96
2022-12-01T20:59:28.238Z,-2.09
2022-12-01T21:01:57.393Z,-2.04
2022-12-01T21:04:28.217Z,-2.07
2022-12-01T21:06:58.223Z,-2.04
2022-12-01T21:09:27.075Z,-2.08
2022-12-01T21:12:16.117Z,-2.02
2022-12-01T21:15:06.384Z,-2.08
2022-12-01T21:17:38.321Z,-2.09
2022-12-01T21:20:13.589Z,-2.10
2022-12-01T21:22:42.505Z,-2.08
2022-12-01T21:25:21.296Z,-2.15
2022-12-01T21:27:50.114Z,-2.16
2022-12-01T21:30:25.217Z,-2.17
2022-12-01T21:32:54.609Z,-2.19
2022-12-01T21:35:27.264Z,-2.19
2022-12-01T21:38:00.977Z,-2.29
2022-12-01T21:40:29.498Z,-2.27
2022-12-01T21:43:02.137Z,-2.36
2022-12-01T21:45:32.729Z,-2.31
2022-12-01T21:48:11.463Z,-2.20
2022-12-01T21:50:39.781Z,-2.20
2022-12-01T21:53:16.733Z,-2.23
2022-12-01T21:55:49.508Z,-2.26
2022-12-01T21:58:29.487Z,-2.22
2022-12-01T22:00:59.358Z,-2.24
2022-12-01T22:03:33.670Z,-2.16
2022-12-01T22:06:30.764Z,-2.22
2022-12-01T22:09:27.230Z,-2.22
2022-12-01T22:11:57.114Z,-2.19
2022-12-01T22:14:30.709Z,-2.21
2022-12-01T22:17:20.903Z,-2.22
2022-12-01T22:20:01.256Z,-2.24
2022-12-01T22:22:30.874Z,-2.24
2022-12-01T22:25:01.773Z,-2.10
2022-12-01T22:27:36.664Z,-2.17
2022-12-01T22:30:08.297Z,-2.23
2022-12-01T22:32:42.303Z,-2.23
2022-12-01T22:35:20.420Z,-2.26
2022-12-01T22:38:13.464Z,-2.26
2022-12-01T22:40:51.895Z,-2.37
2022-12-01T22:43:29.160Z,-2.43
2022-12-01T22:46:00.276Z,-2.43
2022-12-01T22:48:28.490Z,-2.43
2022-12-01T22:51:02.184Z,-2.36
2022-12-01T22:53:31.694Z,-2.46
2022-12-01T22:56:01.393Z,-2.32
2022-12-01T22:58:32.125Z,-2.32
2022-12-01T23:01:11.616Z,-2.42
2022-12-01T23:03:39.438Z,-2.37
2022-12-01T23:06:46.272Z,-2.43
2022-12-01T23:09:15.047Z,-2.52
2022-12-01T23:11:44.444Z,-2.45
2022-12-01T23:14:17.196Z,-2.46
2022-12-01T23:16:45.363Z,-2.46
2022-12-01T23:19:13.620Z,-2.43
2022-12-01T23:21:42.250Z,-2.53
2022-12-01T23:24:11.653Z,-2.47
2022-12-01T23:26:39.573Z,-2.47
2022-12-01T23:29:07.344Z,-2.40
2022-12-01T23:31:35.884Z,-2.42
2022-12-01T23:34:04.691Z,-2.45
2022-12-01T23:36:33.090Z,-2.49
2022-12-01T23:39:04.354Z,-2.49
2022-12-01T23:41:48.402Z,-2.53
2022-12-01T23:44:46.157Z,-2.58
2022-12-01T23:47:20.232Z,-2.68
2022-12-01T23:49:48.787Z,-2.63
2022-12-01T23:52:20.537Z,-2.70
2022-12-01T23:54:48.972Z,-2.73
2022-12-01T23:57:21.773Z,-2.82
2022-12-01T23:59:56.366Z,-2.80
